Time;durP1;ratioP1;P1;durP2;ratioP2;P2;SDS_P1;SDS_P2;PMS_P1;PMS_P2;Temp;Humidity;BMP_temperature;BMP_pressure;BME280_temperature;BME280_humidity;BME280_pressure;Samples;Min_cycle;Max_cycle;Signal;HPM_P1;HPM_P2
2022/07/16 00:05:31;;;;;;;3.70;1.00;;;;;;;16.35;51.34;100793.59;10278706;28;20065;-78
2022/07/16 00:10:34;;;;;;;3.05;1.27;;;;;;;16.34;51.34;100779.16;10287165;28;20050;-77
2022/07/16 00:15:36;;;;;;;3.13;1.20;;;;;;;16.46;51.55;100777.09;10307459;28;20139;-78
2022/07/16 00:20:41;;;;;;;2.15;1.17;;;;;;;16.40;51.06;100782.25;10313573;28;20128;-77
2022/07/16 00:25:44;;;;;;;1.98;1.20;;;;;;;16.11;51.57;100783.28;10311332;28;20046;-78
2022/07/16 00:30:47;;;;;;;1.85;1.23;;;;;;;15.90;52.39;100773.53;10320772;28;20050;-77
2022/07/16 00:35:51;;;;;;;2.75;1.30;;;;;;;15.77;53.14;100774.88;10315083;28;20047;-78
2022/07/16 00:40:53;;;;;;;2.63;1.20;;;;;;;15.59;53.29;100762.13;10326013;28;20063;-77
2022/07/16 00:45:56;;;;;;;4.80;1.70;;;;;;;15.61;53.61;100767.41;10317849;28;20034;-77
2022/07/16 00:51:07;;;;;;;3.60;1.58;;;;;;;15.55;54.08;100766.13;10330152;28;20070;-77
2022/07/16 00:56:11;;;;;;;3.92;1.50;;;;;;;15.61;53.69;100757.41;10333249;28;20109;-78
2022/07/16 01:01:15;;;;;;;3.60;1.45;;;;;;;15.48;54.43;100763.13;10311243;28;20050;-77
2022/07/16 01:06:20;;;;;;;3.88;1.45;;;;;;;15.31;55.27;100758.47;10309785;28;20059;-77
2022/07/16 01:11:23;;;;;;;5.13;1.45;;;;;;;14.78;56.86;100767.06;10323016;28;20070;-77
2022/07/16 01:16:26;;;;;;;6.80;1.60;;;;;;;15.24;56.12;100758.19;10312006;28;20484;-77
2022/07/16 01:21:30;;;;;;;3.28;1.75;;;;;;;15.53;55.30;100757.28;10304824;28;20110;-77
2022/07/16 01:26:34;;;;;;;3.42;1.63;;;;;;;15.49;55.83;100753.16;10332740;28;20046;-77
2022/07/16 01:31:37;;;;;;;4.22;1.45;;;;;;;15.68;55.18;100747.66;10318342;28;20051;-77
2022/07/16 01:36:40;;;;;;;2.72;1.55;;;;;;;15.41;55.94;100743.09;10318217;28;20057;-77
2022/07/16 01:41:51;;;;;;;1.70;1.48;;;;;;;15.52;56.15;100747.44;10282650;28;20109;-77
2022/07/16 01:46:55;;;;;;;3.22;1.98;;;;;;;15.08;57.73;100738.97;10288435;28;20055;-77
2022/07/16 01:51:58;;;;;;;3.83;1.80;;;;;;;15.47;56.44;100734.38;10278614;28;20050;-77
2022/07/16 01:57:02;;;;;;;4.00;2.13;;;;;;;15.14;58.02;100738.44;10282062;28;20496;-78
2022/07/16 02:02:05;;;;;;;2.38;1.70;;;;;;;15.17;57.45;100732.72;10290001;28;20062;-78
2022/07/16 02:07:08;;;;;;;4.30;1.65;;;;;;;15.21;57.47;100736.81;10299965;28;20082;-77
2022/07/16 02:12:12;;;;;;;1.77;1.27;;;;;;;15.65;56.02;100730.88;10314770;28;20046;-78
2022/07/16 02:17:15;;;;;;;4.35;1.90;;;;;;;15.80;55.51;100733.97;10285874;28;20519;-78
2022/07/16 02:22:18;;;;;;;3.42;1.65;;;;;;;15.63;55.39;100738.28;10306497;28;20066;-77
2022/07/16 02:27:23;;;;;;;2.10;1.50;;;;;;;15.79;54.91;100737.66;10272826;28;20061;-78
2022/07/16 02:32:25;;;;;;;6.20;1.83;;;;;;;15.64;55.57;100730.03;10279912;28;20074;-78
2022/07/16 02:37:28;;;;;;;4.28;1.52;;;;;;;15.60;55.61;100725.06;10294353;28;20093;-78
2022/07/16 02:42:32;;;;;;;2.15;1.75;;;;;;;15.57;55.78;100728.06;10292850;28;20105;-78
2022/07/16 02:47:35;;;;;;;3.03;1.90;;;;;;;15.27;57.05;100725.41;10275745;28;20416;-78
2022/07/16 02:52:38;;;;;;;2.70;1.77;;;;;;;15.39;56.46;100715.31;10268019;28;20488;-78
2022/07/16 02:57:43;;;;;;;5.50;1.90;;;;;;;15.39;56.89;100719.88;10262225;28;20420;-78
2022/07/16 03:02:46;;;;;;;3.45;2.35;;;;;;;15.22;57.07;100716.91;10283744;28;20180;-78
2022/07/16 03:07:49;;;;;;;5.68;2.20;;;;;;;15.11;56.66;100717.06;10290298;28;20753;-78
2022/07/16 03:12:54;;;;;;;3.17;2.33;;;;;;;15.37;56.04;100709.19;10288104;28;20047;-78
2022/07/16 03:17:57;;;;;;;3.63;2.28;;;;;;;15.58;55.47;100718.97;10261442;28;20093;-78
2022/07/16 03:23:00;;;;;;;3.42;1.90;;;;;;;15.57;55.32;100711.81;10287667;28;20047;-78
2022/07/16 03:28:04;;;;;;;4.82;1.90;;;;;;;15.42;55.93;100704.19;10263701;28;20196;-78
2022/07/16 03:33:07;;;;;;;3.70;1.80;;;;;;;15.21;56.30;100711.63;10288260;28;20054;-78
2022/07/16 03:43:32;;;;;;;3.20;1.92;;;;;;;15.33;55.87;100710.47;10283735;28;20120;-78
2022/07/16 03:48:35;;;;;;;4.25;1.95;;;;;;;15.29;55.92;100716.31;10266825;28;20046;-78
2022/07/16 03:53:38;;;;;;;5.85;2.03;;;;;;;15.37;56.47;100713.75;10268156;28;20673;-78
2022/07/16 03:58:43;;;;;;;2.67;1.85;;;;;;;15.51;56.03;100715.97;10279221;28;20054;-78
2022/07/16 04:03:46;;;;;;;6.15;2.40;;;;;;;15.05;56.35;100717.63;10285441;28;21295;-78
2022/07/16 04:08:49;;;;;;;4.90;2.03;;;;;;;15.59;55.54;100729.63;10300996;28;20049;-77
2022/07/16 04:13:53;;;;;;;3.35;1.80;;;;;;;15.70;54.93;100732.13;10278138;28;20069;-78
2022/07/16 04:18:56;;;;;;;6.25;2.50;;;;;;;15.58;55.35;100727.06;10263751;28;20063;-78
2022/07/16 04:24:00;;;;;;;2.25;2.03;;;;;;;15.72;54.74;100732.00;10267303;28;20054;-78
2022/07/16 04:29:04;;;;;;;4.03;2.15;;;;;;;15.29;55.56;100741.50;10280924;28;21196;-78
2022/07/16 04:34:07;;;;;;;2.83;1.88;;;;;;;15.69;56.67;100738.56;10288710;28;20042;-77
2022/07/16 04:39:10;;;;;;;3.05;2.40;;;;;;;15.44;57.02;100742.78;10280055;28;20050;-77
2022/07/16 04:44:14;;;;;;;3.90;1.83;;;;;;;15.46;56.52;100750.75;10260009;28;20707;-78
2022/07/16 04:49:23;;;;;;;7.57;2.25;;;;;;;15.45;56.94;100759.88;10284442;28;20058;-78
2022/07/16 04:54:26;;;;;;;4.80;2.30;;;;;;;15.52;57.14;100779.94;10294268;28;20069;-78
2022/07/16 04:59:30;;;;;;;4.75;2.70;;;;;;;15.31;62.93;100790.94;10280553;28;20058;-78
2022/07/16 05:04:33;;;;;;;7.80;3.75;;;;;;;15.16;66.36;100786.97;10289194;28;20054;-78
2022/07/16 05:09:36;;;;;;;5.75;3.95;;;;;;;14.29;70.27;100791.31;10307813;28;20194;-78
2022/07/16 05:14:40;;;;;;;6.20;4.57;;;;;;;13.86;74.70;100797.00;10285832;28;20054;-78
2022/07/16 05:19:43;;;;;;;6.80;5.40;;;;;;;13.48;76.87;100799.38;10273669;28;20051;-78
2022/07/16 05:24:46;;;;;;;7.47;5.15;;;;;;;13.35;77.89;100804.06;10284345;28;20046;-79
2022/07/16 05:29:50;;;;;;;7.47;5.97;;;;;;;12.76;79.85;100807.34;10301972;28;20050;-79
2022/07/16 05:34:53;;;;;;;11.98;6.47;;;;;;;13.40;80.04;100812.66;10276687;28;20424;-79
2022/07/16 05:39:55;;;;;;;6.90;5.80;;;;;;;14.06;78.75;100816.84;10291026;28;20047;-79
2022/07/16 05:45:00;;;;;;;9.32;6.13;;;;;;;14.31;77.76;100819.03;10277233;28;20077;-80
2022/07/16 05:50:05;;;;;;;9.25;5.80;;;;;;;14.45;77.57;100825.06;10282140;28;20191;-78
2022/07/16 05:55:08;;;;;;;12.82;6.60;;;;;;;14.85;77.13;100826.84;10306051;28;20046;-78
2022/07/16 06:00:14;;;;;;;7.30;5.93;;;;;;;15.00;75.57;100826.31;10298481;28;20100;-77
2022/07/16 06:05:17;;;;;;;9.48;6.43;;;;;;;15.75;75.73;100820.22;10270317;28;20070;-79
2022/07/16 06:10:20;;;;;;;6.70;5.95;;;;;;;16.05;73.66;100821.81;10288086;28;20688;-78
2022/07/16 06:15:25;;;;;;;7.97;5.40;;;;;;;16.46;72.94;100831.34;10302583;28;20058;-78
2022/07/16 06:20:27;;;;;;;5.03;3.90;;;;;;;16.88;68.70;100833.47;10270857;28;20121;-78
2022/07/16 06:25:32;;;;;;;3.97;3.13;;;;;;;17.14;68.24;100839.00;10275736;28;20405;-78
2022/07/16 06:30:36;;;;;;;4.95;3.05;;;;;;;16.71;68.12;100847.88;10291989;28;20052;-78
2022/07/16 06:35:39;;;;;;;4.85;3.33;;;;;;;17.30;67.91;100842.84;10300891;28;20054;-78
2022/07/16 06:40:42;;;;;;;6.70;3.83;;;;;;;17.17;66.09;100851.41;10289013;28;20404;-78
2022/07/16 06:45:46;;;;;;;7.03;2.90;;;;;;;16.52;68.41;100851.56;10299917;28;20088;-78
2022/07/16 06:50:50;;;;;;;5.85;3.00;;;;;;;16.05;69.07;100855.19;10296694;28;20058;-78
2022/07/16 06:55:53;;;;;;;5.13;2.53;;;;;;;16.65;65.99;100859.31;10268587;28;20059;-78
2022/07/16 07:00:57;;;;;;;3.08;2.38;;;;;;;17.49;67.25;100867.09;10279903;28;20039;-78
2022/07/16 07:06:00;;;;;;;2.33;1.67;;;;;;;17.32;62.36;100874.25;10271527;28;21280;-79
2022/07/16 07:11:04;;;;;;;1.60;1.50;;;;;;;17.11;62.17;100870.97;10268973;28;20133;-77
2022/07/16 07:16:08;;;;;;;3.33;1.40;;;;;;;16.94;62.47;100878.13;10282059;28;20045;-77
2022/07/16 07:21:11;;;;;;;4.80;0.95;;;;;;;17.16;61.57;100883.13;10290812;28;20170;-77
2022/07/16 07:26:14;;;;;;;1.20;1.10;;;;;;;18.23;58.50;100884.75;10286406;28;20050;-78
2022/07/16 07:31:19;;;;;;;1.85;1.00;;;;;;;18.08;56.88;100892.69;10301370;28;20050;-78
2022/07/16 07:36:24;;;;;;;2.72;1.10;;;;;;;18.35;56.24;100901.66;10287481;28;20697;-77
2022/07/16 07:41:27;;;;;;;1.48;1.05;;;;;;;18.23;57.72;100906.50;10281232;28;20058;-78
2022/07/16 07:46:31;;;;;;;2.22;1.20;;;;;;;19.21;55.58;100900.56;10295331;28;20054;-78
2022/07/16 07:51:34;;;;;;;3.00;1.15;;;;;;;22.34;48.50;100900.53;10293925;28;20451;-78
2022/07/16 07:56:37;;;;;;;1.10;0.85;;;;;;;24.79;41.87;100900.22;10301547;28;20057;-78
2022/07/16 08:01:42;;;;;;;1.23;1.13;;;;;;;22.60;44.32;100914.78;10299727;28;20046;-78
2022/07/16 08:06:46;;;;;;;2.97;0.82;;;;;;;19.42;49.53;100930.06;10298249;28;20057;-78
2022/07/16 08:11:49;;;;;;;3.05;1.08;;;;;;;20.27;49.50;100916.00;10304209;28;20058;-78
2022/07/16 08:16:53;;;;;;;3.40;1.00;;;;;;;21.56;45.75;100920.13;10307370;28;20043;-78
2022/07/16 08:21:56;;;;;;;2.45;1.20;;;;;;;20.99;47.33;100924.06;10305731;28;20058;-79
2022/07/16 08:26:59;;;;;;;3.97;1.30;;;;;;;21.04;47.15;100918.13;10310776;28;20685;-78
2022/07/16 08:32:04;;;;;;;3.90;1.95;;;;;;;20.85;46.38;100925.69;10303268;28;20109;-78
2022/07/16 08:37:09;;;;;;;4.38;1.48;;;;;;;20.98;45.34;100936.88;10295050;28;20053;-78
2022/07/16 08:42:12;;;;;;;3.25;1.10;;;;;;;20.29;45.46;100939.34;10300446;28;20074;-78
2022/07/16 08:47:16;;;;;;;1.05;1.00;;;;;;;21.40;45.11;100942.94;10306903;28;20046;-78
2022/07/16 08:52:20;;;;;;;3.00;1.00;;;;;;;18.90;46.86;100958.38;10298755;28;20050;-78
2022/07/16 08:57:25;;;;;;;4.93;1.15;;;;;;;19.72;47.09;100947.63;10313904;28;20058;-78
2022/07/16 09:02:29;;;;;;;2.75;1.20;;;;;;;19.81;48.48;100954.78;10288239;28;20062;-78
2022/07/16 09:07:32;;;;;;;3.58;1.58;;;;;;;19.53;48.19;100956.09;10287044;28;20049;-78
2022/07/16 09:12:39;;;;;;;3.20;1.00;;;;;;;19.44;47.04;100972.44;10288204;28;20050;-78
2022/07/16 09:17:44;;;;;;;7.00;2.85;;;;;;;20.14;46.64;100987.47;10281467;28;20058;-78
2022/07/16 09:22:47;;;;;;;2.85;1.27;;;;;;;20.58;44.66;100991.66;10297394;28;20057;-78
2022/07/16 09:27:58;;;;;;;2.83;0.88;;;;;;;21.11;42.11;101003.75;10260965;28;20148;-78
2022/07/16 09:33:12;;;;;;;2.10;0.93;;;;;;;22.48;40.50;101000.13;10294777;28;20046;-78
2022/07/16 09:38:15;;;;;;;3.92;1.02;;;;;;;22.22;41.17;100997.81;10295904;28;20051;-78
2022/07/16 09:43:21;;;;;;;2.33;1.00;;;;;;;21.48;42.08;101005.75;10264286;28;20050;-78
2022/07/16 09:48:28;;;;;;;3.25;1.25;;;;;;;22.75;37.81;100993.13;10289432;28;20054;-78
2022/07/16 09:53:38;;;;;;;3.00;1.00;;;;;;;23.31;37.42;101005.44;10303743;28;20409;-79
2022/07/16 09:58:46;;;;;;;5.65;1.17;;;;;;;22.71;38.39;101015.63;10295694;28;20046;-77
2022/07/16 10:03:51;;;;;;;3.38;0.90;;;;;;;21.85;38.45;101020.53;10308296;28;20070;-78
2022/07/16 10:08:55;;;;;;;2.58;0.60;;;;;;;22.88;38.37;101014.38;10310411;28;20069;-78
2022/07/16 10:13:58;;;;;;;6.82;1.50;;;;;;;23.61;35.74;101011.66;10281588;28;20065;-77
2022/07/16 10:19:04;;;;;;;3.17;0.90;;;;;;;23.45;37.14;101015.53;10256775;28;20054;-78
2022/07/16 10:24:09;;;;;;;4.50;0.98;;;;;;;22.34;38.84;101031.03;10266828;28;20535;-78
2022/07/16 10:29:12;;;;;;;4.90;1.35;;;;;;;23.30;37.89;101034.75;10289419;28;20097;-77
2022/07/16 10:34:41;;;;;;;6.28;1.08;;;;;;;22.48;39.23;101054.88;10275755;28;20227;-77
2022/07/16 10:40:03;;;;;;;6.43;1.45;;;;;;;23.88;37.94;101051.22;10284344;28;20058;-78
2022/07/16 10:45:07;;;;;;;;;;;;;;;24.13;36.98;101064.53;10273137;28;20051;-77
2022/07/16 10:50:22;;;;;;;2.75;1.40;;;;;;;23.83;36.51;101073.78;10271835;28;19937;-78
2022/07/16 10:55:38;;;;;;;3.53;1.00;;;;;;;23.70;35.13;101065.38;10277701;28;20058;-78
2022/07/16 11:00:41;;;;;;;3.08;1.40;;;;;;;23.71;35.95;101079.94;10281073;28;20102;-78
2022/07/16 11:05:46;;;;;;;4.45;1.20;;;;;;;22.93;35.71;101082.31;10292768;28;20053;-77
2022/07/16 11:10:50;;;;;;;2.72;0.80;;;;;;;24.53;34.20;101088.56;10284298;28;20101;-78
2022/07/16 11:15:53;;;;;;;2.25;0.60;;;;;;;23.14;35.59;101108.97;10289098;28;20078;-78
2022/07/16 11:21:05;;;;;;;4.88;0.88;;;;;;;23.79;34.73;101093.56;10277390;28;20070;-78
2022/07/16 11:26:11;;;;;;;6.72;0.90;;;;;;;24.72;32.83;101091.66;10284015;28;20106;-77
2022/07/16 11:31:14;;;;;;;3.40;0.70;;;;;;;25.05;31.59;101108.38;10260949;28;20066;-78
2022/07/16 11:36:29;;;;;;;2.95;0.68;;;;;;;22.32;34.17;101107.88;10275472;28;20153;-75
2022/07/16 11:41:32;;;;;;;5.55;1.00;;;;;;;22.19;35.06;101123.19;10275557;28;20058;-76
2022/07/16 11:46:35;;;;;;;5.78;0.80;;;;;;;23.97;33.10;101112.28;10270197;28;20059;-75
2022/07/16 11:51:42;;;;;;;5.28;1.00;;;;;;;25.95;30.01;101128.44;10291966;28;20124;-76
2022/07/16 11:56:45;;;;;;;2.97;0.85;;;;;;;24.21;31.42;101127.53;10280939;28;20106;-75
2022/07/16 12:01:59;;;;;;;7.22;0.98;;;;;;;24.35;31.92;101128.50;10257550;28;20066;-75
2022/07/16 12:07:03;;;;;;;4.32;0.82;;;;;;;22.65;32.51;101131.38;10262301;28;20046;-75
2022/07/16 12:12:08;;;;;;;3.78;0.60;;;;;;;23.00;32.80;101136.13;10257315;28;20042;-75
2022/07/16 12:17:28;;;;;;;3.20;0.80;;;;;;;24.46;30.41;101128.84;10266737;28;20065;-75
2022/07/16 12:22:50;;;;;;;5.15;1.63;;;;;;;24.16;30.35;101136.34;10255402;28;20043;-75
2022/07/16 12:27:55;;;;;;;2.53;0.77;;;;;;;23.73;30.81;101141.78;10266671;28;20217;-75
2022/07/16 12:33:00;;;;;;;4.72;0.70;;;;;;;25.17;29.31;101145.22;10290163;28;20054;-75
2022/07/16 12:38:05;;;;;;;2.75;0.60;;;;;;;24.53;29.34;101137.97;10283500;28;21307;-75
2022/07/16 12:43:07;;;;;;;3.17;0.73;;;;;;;23.70;30.98;101153.13;10279967;28;20240;-76
2022/07/16 12:48:10;;;;;;;2.67;0.95;;;;;;;24.75;30.74;101154.44;10292413;28;20689;-76
2022/07/16 12:53:15;;;;;;;3.60;0.70;;;;;;;25.48;30.27;101156.78;10283218;28;20420;-75
2022/07/16 13:03:38;;;;;;;3.90;0.73;;;;;;;26.65;28.02;101166.66;10292864;28;20146;-76
2022/07/16 13:08:43;;;;;;;1.15;0.63;;;;;;;26.36;29.36;101160.50;10275696;28;20059;-76
2022/07/16 13:13:46;;;;;;;5.65;0.85;;;;;;;27.35;28.13;101162.34;10255231;28;20504;-76
2022/07/16 13:18:51;;;;;;;4.00;1.40;;;;;;;28.30;26.51;101169.97;10266402;28;20045;-76
2022/07/16 13:23:57;;;;;;;4.85;0.93;;;;;;;28.24;26.88;101162.56;10254897;28;20047;-76
2022/07/16 13:29:00;;;;;;;2.67;0.80;;;;;;;27.66;26.59;101166.28;10267713;28;20075;-76
2022/07/16 13:34:03;;;;;;;3.55;0.60;;;;;;;26.82;27.50;101172.56;10257930;28;21257;-77
2022/07/16 13:39:07;;;;;;;5.93;1.15;;;;;;;28.37;27.29;101159.72;10288326;28;20156;-76
2022/07/16 13:44:10;;;;;;;2.63;0.90;;;;;;;28.67;26.07;101161.84;10288859;28;20066;-76
2022/07/16 13:49:14;;;;;;;2.00;0.63;;;;;;;26.75;27.97;101172.59;10283638;28;20051;-75
2022/07/16 13:54:19;;;;;;;2.47;0.73;;;;;;;26.87;27.80;101173.66;10286536;28;20038;-76
2022/07/16 13:59:22;;;;;;;2.85;0.60;;;;;;;25.74;28.74;101154.19;10285857;28;20181;-76
2022/07/16 14:04:25;;;;;;;3.25;0.90;;;;;;;26.77;27.83;101169.63;10271358;28;20055;-75
2022/07/16 14:09:29;;;;;;;2.67;0.70;;;;;;;27.70;27.01;101161.16;10272596;28;20419;-75
2022/07/16 14:14:33;;;;;;;1.35;0.60;;;;;;;27.88;27.83;101168.72;10253550;28;20086;-76
2022/07/16 14:19:36;;;;;;;3.03;0.80;;;;;;;28.30;26.71;101182.94;10256213;28;20528;-75
2022/07/16 14:24:40;;;;;;;3.40;0.80;;;;;;;27.02;28.13;101176.22;10266239;28;20128;-76
2022/07/16 14:29:43;;;;;;;2.15;0.95;;;;;;;26.37;28.79;101187.00;10284963;28;20547;-75
2022/07/16 14:34:48;;;;;;;3.05;0.75;;;;;;;25.27;29.06;101194.34;10277004;28;20050;-75
2022/07/16 14:39:56;;;;;;;6.00;1.15;;;;;;;26.55;28.16;101185.50;10273164;28;20049;-76
2022/07/16 14:44:59;;;;;;;5.57;0.70;;;;;;;27.69;26.75;101187.06;10265320;28;20177;-75
2022/07/16 14:50:02;;;;;;;2.28;0.70;;;;;;;28.68;26.30;101180.13;10248575;28;21267;-76
2022/07/16 14:55:08;;;;;;;5.55;1.00;;;;;;;28.47;26.23;101182.19;10256628;28;20050;-76
2022/07/16 15:00:14;;;;;;;2.47;0.60;;;;;;;26.65;28.39;101192.28;10278840;28;20415;-76
2022/07/16 15:05:16;;;;;;;3.72;0.70;;;;;;;24.83;29.88;101187.25;10279468;28;20050;-75
2022/07/16 15:10:21;;;;;;;1.30;0.73;;;;;;;25.76;30.08;101196.13;10281130;28;20156;-76
2022/07/16 15:15:24;;;;;;;3.85;0.98;;;;;;;25.28;29.54;101192.44;10276489;28;20046;-75
2022/07/16 15:20:27;;;;;;;2.83;0.90;;;;;;;24.44;31.21;101191.34;10274042;28;20050;-76
2022/07/16 15:25:32;;;;;;;2.83;0.88;;;;;;;26.78;28.91;101188.72;10263138;28;20511;-75
2022/07/16 15:30:35;;;;;;;3.80;0.80;;;;;;;25.70;30.26;101194.19;10249111;28;20130;-76
2022/07/16 15:35:38;;;;;;;2.40;0.80;;;;;;;24.52;32.19;101202.22;10253489;28;20750;-75
2022/07/16 15:40:43;;;;;;;5.85;0.82;;;;;;;25.51;30.50;101203.16;10274277;28;20078;-75
2022/07/16 15:46:06;;;;;;;1.30;0.68;;;;;;;26.71;28.46;101196.09;10264983;28;20195;-76
2022/07/16 15:51:09;;;;;;;2.30;0.45;;;;;;;27.06;27.39;101193.16;10247314;28;20082;-75
2022/07/16 15:56:13;;;;;;;2.30;0.82;;;;;;;26.63;27.82;101193.56;10253706;28;20070;-75
2022/07/16 16:01:16;;;;;;;3.53;0.90;;;;;;;27.57;27.32;101189.69;10279995;28;20476;-76
2022/07/16 16:06:19;;;;;;;5.13;1.10;;;;;;;27.08;28.50;101196.56;10246645;28;20070;-75
2022/07/16 16:11:24;;;;;;;4.00;0.93;;;;;;;27.38;28.00;101188.63;10258664;28;21587;-75
2022/07/16 16:16:27;;;;;;;3.45;0.70;;;;;;;27.74;27.64;101188.09;10279420;28;20058;-76
2022/07/16 16:21:30;;;;;;;7.95;1.00;;;;;;;28.30;27.20;101183.78;10254361;28;20189;-76
2022/07/16 16:26:35;;;;;;;4.43;0.77;;;;;;;28.04;26.77;101180.13;10259809;28;20054;-75
2022/07/16 16:31:38;;;;;;;3.70;0.70;;;;;;;28.56;26.46;101193.00;10267058;28;20049;-76
2022/07/16 16:36:41;;;;;;;1.85;0.70;;;;;;;27.69;27.16;101189.81;10279876;28;20416;-76
2022/07/16 16:41:45;;;;;;;2.78;0.98;;;;;;;27.48;26.73;101202.00;10253412;28;20492;-75
2022/07/16 16:46:48;;;;;;;6.15;0.90;;;;;;;28.88;25.65;101191.88;10273409;28;20050;-75
2022/07/16 16:51:51;;;;;;;3.30;0.88;;;;;;;30.15;23.83;101191.28;10254532;28;20394;-75
2022/07/16 16:56:56;;;;;;;6.88;0.73;;;;;;;32.67;21.91;101187.47;10267908;28;20054;-75
2022/07/16 17:01:59;;;;;;;4.90;1.42;;;;;;;34.97;20.07;101187.44;10262668;28;20050;-75
2022/07/16 17:07:02;;;;;;;2.95;1.00;;;;;;;37.10;18.79;101183.78;10254280;28;20046;-75
2022/07/16 17:12:07;;;;;;;2.65;0.70;;;;;;;37.15;18.67;101183.78;10258959;28;20057;-76
2022/07/16 17:17:11;;;;;;;6.10;1.30;;;;;;;37.90;18.09;101179.00;10265511;28;20475;-76
2022/07/16 17:22:14;;;;;;;2.45;0.80;;;;;;;37.21;18.39;101197.47;10282047;28;20051;-76
2022/07/16 17:27:18;;;;;;;2.10;0.63;;;;;;;37.94;18.11;101198.91;10261313;28;20052;-77
2022/07/16 17:32:21;;;;;;;2.17;0.88;;;;;;;37.67;18.05;101200.16;10263948;28;20061;-77
2022/07/16 17:37:24;;;;;;;3.22;0.75;;;;;;;36.03;18.92;101209.75;10268012;28;20062;-77
2022/07/16 17:42:28;;;;;;;1.20;0.68;;;;;;;34.43;20.18;101213.47;10268939;28;20132;-76
2022/07/16 17:47:31;;;;;;;3.83;1.10;;;;;;;34.92;19.90;101217.25;10285481;28;20530;-77
2022/07/16 17:52:34;;;;;;;4.65;1.80;;;;;;;33.55;21.23;101221.91;10250368;28;20081;-77
2022/07/16 17:57:38;;;;;;;3.95;1.08;;;;;;;32.66;22.07;101225.53;10259489;28;20089;-77
2022/07/16 18:02:41;;;;;;;4.47;0.80;;;;;;;27.97;26.33;101231.75;10260601;28;20514;-76
2022/07/16 18:07:45;;;;;;;2.88;1.10;;;;;;;25.06;30.25;101249.38;10249833;28;20062;-76
2022/07/16 18:12:49;;;;;;;5.38;1.02;;;;;;;23.97;31.44;101244.88;10274287;28;20053;-76
2022/07/16 18:17:52;;;;;;;3.70;1.00;;;;;;;22.99;32.92;101254.97;10271777;28;20050;-76
2022/07/16 18:22:55;;;;;;;3.15;0.80;;;;;;;22.01;34.55;101263.00;10261806;28;20046;-76
2022/07/16 18:27:59;;;;;;;6.40;1.40;;;;;;;21.44;35.26;101262.16;10257261;28;20050;-76
2022/07/16 18:33:02;;;;;;;1.58;0.60;;;;;;;21.33;35.89;101262.50;10280562;28;20080;-76
2022/07/16 18:38:05;;;;;;;3.20;1.25;;;;;;;21.17;36.38;101266.16;10272829;28;20140;-75
2022/07/16 18:43:11;;;;;;;5.85;0.77;;;;;;;20.84;36.97;101268.00;10275856;28;20061;-76
2022/07/16 18:48:13;;;;;;;3.95;1.10;;;;;;;20.73;37.18;101271.06;10257432;28;20555;-76
2022/07/16 18:53:16;;;;;;;2.25;0.80;;;;;;;20.59;37.74;101278.06;10248594;28;20880;-76
2022/07/16 18:58:23;;;;;;;5.50;0.80;;;;;;;20.41;37.96;101280.94;10265455;28;20069;-76
2022/07/16 19:03:25;;;;;;;5.18;1.35;;;;;;;20.14;38.30;101282.03;10274762;28;20054;-76
2022/07/16 19:08:29;;;;;;;2.85;1.00;;;;;;;20.00;38.49;101297.13;10257251;28;20065;-75
2022/07/16 19:13:56;;;;;;;5.20;1.00;;;;;;;19.86;38.79;101300.50;10260045;28;20050;-76
2022/07/16 19:18:57;;;;;;;4.68;0.80;;;;;;;19.70;39.29;101308.59;10277309;28;20047;-75
2022/07/16 19:24:01;;;;;;;2.67;1.00;;;;;;;19.56;39.49;101308.16;10270641;28;20059;-76
2022/07/16 19:29:05;;;;;;;4.95;1.13;;;;;;;19.33;40.03;101313.25;10263763;28;20054;-76
2022/07/16 19:34:08;;;;;;;3.40;0.68;;;;;;;19.11;40.60;101313.75;10258802;28;20054;-75
2022/07/16 19:39:11;;;;;;;5.18;1.38;;;;;;;19.04;40.71;101316.28;10279057;28;20046;-76
2022/07/16 19:44:15;;;;;;;4.78;0.90;;;;;;;19.01;40.75;101320.16;10280814;28;20074;-75
2022/07/16 19:49:18;;;;;;;2.65;1.00;;;;;;;18.89;41.12;101328.72;10274868;28;20047;-75
2022/07/16 19:54:21;;;;;;;4.28;0.85;;;;;;;18.73;41.40;101330.25;10280690;28;20065;-75
2022/07/16 19:59:31;;;;;;;4.78;1.13;;;;;;;18.69;41.47;101342.44;10281214;28;20522;-75
2022/07/16 20:04:35;;;;;;;4.15;1.10;;;;;;;18.46;41.66;101349.34;10291090;28;20046;-75
2022/07/16 20:09:38;;;;;;;3.50;0.95;;;;;;;18.31;41.70;101349.00;10289971;28;20062;-75
2022/07/16 20:14:43;;;;;;;4.10;0.90;;;;;;;18.20;41.82;101360.09;10287610;28;20154;-75
2022/07/16 20:19:46;;;;;;;3.13;1.10;;;;;;;18.08;42.15;101360.28;10292527;28;20105;-74
2022/07/16 20:24:56;;;;;;;2.97;1.00;;;;;;;18.02;42.33;101369.03;10290296;28;21296;-75
2022/07/16 20:30:01;;;;;;;5.75;1.23;;;;;;;18.05;42.30;101366.03;10286153;28;20097;-75
2022/07/16 20:35:05;;;;;;;5.85;1.00;;;;;;;17.85;42.79;101369.78;10286957;28;20170;-75
2022/07/16 20:40:11;;;;;;;6.32;1.40;;;;;;;17.79;43.21;101368.50;10290316;28;20054;-74
2022/07/16 20:49:17;;;;;;;3.42;1.10;;;;;;;17.60;43.58;101376.72;10455248;27;21613;-75
2022/07/16 20:54:20;;;;;;;3.78;0.95;;;;;;;17.50;44.26;101374.03;10501379;27;20047;-75
2022/07/16 20:59:23;;;;;;;4.10;1.33;;;;;;;17.35;44.45;101379.03;10461024;27;20740;-75
2022/07/16 21:04:27;;;;;;;5.55;1.38;;;;;;;17.27;44.81;101384.31;10475382;27;20036;-75
2022/07/16 21:09:30;;;;;;;5.00;0.93;;;;;;;17.18;45.40;101386.06;10488458;27;20056;-76
2022/07/16 21:14:34;;;;;;;4.60;1.25;;;;;;;16.99;45.34;101397.72;10494051;27;20724;-75
2022/07/16 21:19:38;;;;;;;3.22;1.00;;;;;;;16.94;45.76;101396.44;10485943;27;20578;-75
2022/07/16 21:24:41;;;;;;;3.03;1.00;;;;;;;16.75;46.37;101399.97;10470750;27;20702;-76
2022/07/16 21:29:44;;;;;;;7.82;1.55;;;;;;;16.79;46.42;101396.84;10468071;27;20048;-76
2022/07/16 21:34:48;;;;;;;3.22;1.30;;;;;;;16.80;46.47;101405.84;10452748;27;20082;-75
2022/07/16 21:39:51;;;;;;;3.85;1.10;;;;;;;16.66;46.65;101400.84;10456430;27;20143;-75
2022/07/16 21:45:00;;;;;;;5.82;1.20;;;;;;;16.59;46.73;101406.81;10472120;27;20044;-76
2022/07/16 21:50:05;;;;;;;3.60;1.40;;;;;;;16.46;47.42;101406.22;10474829;27;20053;-76
2022/07/16 21:55:08;;;;;;;4.63;1.25;;;;;;;16.23;47.81;101413.63;10464321;27;20497;-75
2022/07/16 22:00:15;;;;;;;3.08;1.27;;;;;;;16.26;48.08;101424.25;10446888;28;20076;-75
2022/07/16 22:05:19;;;;;;;2.33;0.80;;;;;;;16.17;48.41;101424.19;10426841;28;20080;-75
2022/07/16 22:10:22;;;;;;;6.90;1.60;;;;;;;16.12;48.39;101419.16;10439742;28;20771;-75
2022/07/16 22:15:25;;;;;;;5.05;1.52;;;;;;;16.05;48.63;101428.84;10436927;28;20049;-75
2022/07/16 22:25:46;;;;;;;3.95;1.40;;;;;;;16.01;49.51;101428.22;10416277;28;20238;-75
2022/07/16 22:30:50;;;;;;;3.65;1.67;;;;;;;15.93;49.18;101438.88;10421092;28;20135;-75
2022/07/16 22:35:54;;;;;;;3.33;1.27;;;;;;;15.84;49.89;101443.25;10434656;28;20489;-75
2022/07/16 22:40:57;;;;;;;7.05;1.85;;;;;;;15.85;49.87;101449.53;10448466;28;20129;-73
2022/07/16 22:46:00;;;;;;;5.07;1.63;;;;;;;15.66;50.16;101451.13;10450113;28;20195;-75
2022/07/16 22:51:04;;;;;;;7.35;1.52;;;;;;;15.61;50.13;101453.38;10417444;28;20076;-76
2022/07/16 22:56:08;;;;;;;4.63;1.40;;;;;;;15.65;50.55;101460.25;10440374;28;20627;-76
2022/07/16 23:01:10;;;;;;;5.00;1.80;;;;;;;15.59;50.76;101458.06;10443284;28;20049;-76
2022/07/16 23:06:23;;;;;;;4.82;1.52;;;;;;;15.50;51.05;101461.56;10436930;28;20047;-76
2022/07/16 23:11:26;;;;;;;6.40;1.80;;;;;;;15.33;50.92;101462.09;10451451;28;20122;-75
2022/07/16 23:16:29;;;;;;;4.78;1.30;;;;;;;14.83;52.27;101459.91;10439128;28;20519;-75
2022/07/16 23:21:33;;;;;;;6.72;1.50;;;;;;;14.87;52.73;101463.22;10441654;28;20088;-76
2022/07/16 23:26:36;;;;;;;5.60;1.35;;;;;;;14.75;52.48;101467.78;10413109;28;20048;-77
2022/07/16 23:31:39;;;;;;;6.18;1.42;;;;;;;14.22;54.05;101468.38;10422078;28;21322;-75
2022/07/16 23:36:43;;;;;;;4.75;1.60;;;;;;;14.14;54.53;101471.69;10418692;28;20507;-76
2022/07/16 23:41:46;;;;;;;5.90;1.40;;;;;;;14.07;54.67;101470.47;10413837;28;20157;-75